Wayne, NE

12:24 PM CDT on May 25, 2017 (GMT -0500)
Wayne Municipal

Weather History for KLCG - November, 2012

Change the Weather History Date:

Saturday, November 17, 2012

  Actual Average (KOFK) Record (KOFK)
Temperature  
Mean Temperature 48 °F -  
Max Temperature 62 °F 48 °F 80 °F (1908)
Min Temperature 35 °F 25 °F -5 °F (1959)
Degree Days  
Heating Degree Days 16    
Moisture  
Dew Point 33 °F    
Average Humidity 65    
Maximum Humidity 89    
Minimum Humidity 35    
Precipitation  
Precipitation 0.00 in - - ()
Sea Level Pressure  
Sea Level Pressure 30.14 in    
Wind  
Wind Speed 13 mph (South)    
Max Wind Speed 26 mph    
Max Gust Speed 34 mph    
Visibility 10 miles    
Events      
Averages and records for this station are not official NWS values.
T = Trace of Precipitation, MM = Missing Value Source: NWS Daily Summary

Daily Weather History Graph

Daily Weather History Graph

Search for Another Location

Airport or City:

Trip Planner

Search our weather history database for the weather conditions in past years. The results will help you decide how hot, cold, wet, or windy it might be!

Date:

Astronomy

Nov. 17, 2012 Rise Set
Actual Time 7:21 AM CST 5:04 PM CST
Civil Twilight 6:51 AM CST 5:34 PM CST
Nautical Twilight 6:17 AM CST 6:08 PM CST
Astronomical Twilight 5:43 AM CST 6:41 PM CST
Moon 11:07 AM CST (11/17) 9:15 PM CST (11/17)
Length of Visible Light 10h 43m
Length of Day
9h 42m
Waxing Crescent, 20% of the Moon is Illuminated
Nov 17
Waxing Crescent
Nov 20
First Quarter
Nov 28
Full
Dec 6
Last Quarter
Dec 13
New

Hourly Weather History & Observations

Time (CST) Temp. Windchill Dew Point Humidity Pressure Visibility Wind Dir Wind Speed Gust Speed Precip Events Conditions
12:15 AM 38.3 °F 31.4 °F 32.4 °F 79% 30.24 in 10.0 mi South 10.4 mph - N/A   Clear
12:35 AM 38.1 °F 31.2 °F 32.5 °F 80% 30.24 in 10.0 mi South 10.4 mph - N/A   Clear
12:55 AM 37.0 °F 30.4 °F 32.2 °F 83% 30.24 in 10.0 mi South 9.2 mph - N/A   Clear
1:15 AM 37.9 °F 30.9 °F 32.9 °F 82% 30.23 in 10.0 mi South 10.4 mph - N/A   Clear
1:35 AM 38.3 °F 30.5 °F 32.7 °F 80% 30.22 in 10.0 mi South 12.7 mph - N/A   Clear
1:55 AM 37.9 °F 30.0 °F 32.5 °F 81% 30.22 in 10.0 mi South 12.7 mph - N/A   Clear
2:15 AM 37.4 °F 30.3 °F 32.4 °F 82% 30.22 in 10.0 mi South 10.4 mph - N/A   Clear
2:35 AM 37.6 °F 30.0 °F 32.5 °F 82% 30.22 in 10.0 mi South 11.5 mph - N/A   Clear
2:55 AM 37.4 °F 30.3 °F 32.4 °F 82% 30.22 in 10.0 mi South 10.4 mph - N/A   Clear
3:15 AM 37.0 °F 29.3 °F 32.4 °F 83% 30.22 in 10.0 mi South 11.5 mph - N/A   Clear
3:35 AM 36.5 °F 29.2 °F 32.2 °F 84% 30.21 in 10.0 mi South 10.4 mph - N/A   Clear
3:55 AM 36.1 °F 29.3 °F 32.2 °F 86% 30.20 in 10.0 mi South 9.2 mph - N/A   Clear
4:15 AM 35.6 °F 28.6 °F 32.0 °F 87% 30.20 in 10.0 mi South 9.2 mph - N/A   Clear
4:35 AM 35.4 °F 27.8 °F 32.0 °F 87% 30.20 in 10.0 mi South 10.4 mph - N/A   Clear
4:55 AM 35.1 °F 26.4 °F 32.0 °F 89% 30.20 in 10.0 mi South 12.7 mph - N/A   Clear
5:15 AM 35.1 °F 26.9 °F 32.0 °F 89% 30.20 in 10.0 mi South 11.5 mph - N/A   Clear
5:35 AM 35.4 °F 26.4 °F 32.2 °F 88% 30.20 in 10.0 mi South 13.8 mph - N/A   Clear
5:55 AM 35.6 °F 27.1 °F 32.4 °F 88% 30.20 in 10.0 mi South 12.7 mph - N/A   Clear
6:15 AM 36.0 °F 27.1 °F 32.4 °F 87% 30.19 in 10.0 mi South 13.8 mph - N/A   Clear
6:35 AM 36.0 °F 27.5 °F 32.4 °F 87% 30.19 in 10.0 mi South 12.7 mph - N/A   Clear
6:55 AM 36.1 °F 27.7 °F 32.4 °F 86% 30.19 in 10.0 mi South 12.7 mph - N/A   Clear
7:15 AM 36.9 °F 29.1 °F 32.7 °F 85% 30.19 in 10.0 mi South 11.5 mph - N/A   Clear
7:35 AM 37.4 °F 28.9 °F 32.9 °F 84% 30.19 in 10.0 mi SSE 13.8 mph - N/A   Clear
7:55 AM 37.4 °F 28.9 °F 32.9 °F 84% 30.20 in 10.0 mi South 13.8 mph - N/A   Clear
8:15 AM 37.6 °F 28.4 °F 33.1 °F 84% 30.20 in 10.0 mi South 16.1 mph - N/A   Scattered Clouds
8:35 AM 39.7 °F 31.2 °F 34.0 °F 80% 30.20 in 10.0 mi South 16.1 mph - N/A   Scattered Clouds
8:55 AM 41.0 °F 32.5 °F 33.6 °F 75% 30.19 in 10.0 mi South 17.3 mph - N/A   Clear
9:15 AM 41.9 °F 34.0 °F 33.3 °F 71% 30.19 in 10.0 mi South 16.1 mph - N/A   Clear
9:35 AM 43.2 °F 35.3 °F 33.8 °F 70% 30.19 in 10.0 mi South 17.3 mph - N/A   Clear
9:55 AM 45.0 °F 37.4 °F 34.0 °F 65% 30.18 in 10.0 mi South 18.4 mph - N/A   Clear
10:15 AM 47.3 °F - 34.3 °F 61% 30.19 in 10.0 mi South 18.4 mph - N/A   Clear
10:35 AM 48.2 °F - 34.5 °F 59% 30.18 in 10.0 mi South 15.0 mph - N/A   Clear
11:55 AM 56.5 °F - 33.4 °F 42% 30.15 in 10.0 mi South 25.3 mph 32.2 mph N/A   Clear
12:15 PM 57.2 °F - 33.1 °F 40% 30.13 in 10.0 mi South 24.2 mph 32.2 mph N/A   Clear
12:35 PM 59.0 °F - 33.3 °F 38% 30.11 in 10.0 mi South 24.2 mph 33.4 mph N/A   Clear
12:55 PM 59.4 °F - 33.6 °F 38% 30.10 in 10.0 mi South 26.5 mph 34.5 mph N/A   Clear
1:15 PM 61.0 °F - 34.0 °F 36% 30.10 in 10.0 mi South 20.7 mph 31.1 mph N/A   Clear
1:35 PM 60.1 °F - 33.8 °F 37% 30.10 in 10.0 mi South 21.9 mph 26.5 mph N/A   Clear
1:55 PM 61.3 °F - 33.8 °F 36% 30.09 in 10.0 mi South 21.9 mph 29.9 mph N/A   Clear
2:15 PM 61.7 °F - 33.8 °F 35% 30.08 in 10.0 mi South 24.2 mph 28.8 mph N/A   Clear
2:35 PM 62.2 °F - 33.8 °F 35% 30.08 in 10.0 mi South 21.9 mph 27.6 mph N/A   Clear
2:55 PM 62.4 °F - 34.2 °F 35% 30.08 in 10.0 mi South 21.9 mph 32.2 mph N/A   Clear
3:15 PM 62.2 °F - 34.7 °F 36% 30.07 in 10.0 mi South 26.5 mph 34.5 mph N/A   Clear
3:35 PM 62.1 °F - 34.2 °F 35% 30.07 in 10.0 mi South 23.0 mph 26.5 mph N/A   Clear
3:55 PM 60.4 °F - 34.5 °F 38% 30.07 in 10.0 mi South 18.4 mph - N/A   Clear
4:15 PM 61.0 °F - 34.7 °F 37% 30.08 in 10.0 mi South 18.4 mph 29.9 mph N/A   Clear
4:35 PM 59.7 °F - 34.7 °F 39% 30.08 in 10.0 mi South 20.7 mph 28.8 mph N/A   Clear
4:55 PM 58.5 °F - 34.9 °F 41% 30.08 in 10.0 mi South 15.0 mph - N/A   Clear
5:15 PM 56.5 °F - 35.1 °F 45% 30.08 in 10.0 mi South 15.0 mph - N/A   Clear
5:35 PM 54.5 °F - 35.1 °F 48% 30.08 in 10.0 mi South 13.8 mph - N/A   Clear
5:55 PM 53.1 °F - 35.1 °F 50% 30.08 in 10.0 mi South 11.5 mph - N/A   Clear
6:15 PM 52.7 °F - 34.9 °F 51% 30.09 in 10.0 mi South 11.5 mph - N/A   Clear
6:35 PM 51.4 °F - 35.1 °F 54% 30.09 in 10.0 mi SSE 11.5 mph - N/A   Clear
6:55 PM 50.4 °F - 34.9 °F 55% 30.09 in 10.0 mi SSE 13.8 mph - N/A   Clear
7:15 PM 50.2 °F - 35.1 °F 56% 30.09 in 10.0 mi SSE 15.0 mph - N/A   Clear
7:35 PM 49.3 °F - 34.9 °F 58% 30.10 in 10.0 mi SSE 13.8 mph - N/A   Clear
7:55 PM 48.4 °F - 34.9 °F 60% 30.10 in 10.0 mi SSE 13.8 mph - N/A   Clear
8:15 PM 46.9 °F - 34.7 °F 62% 30.10 in 10.0 mi SSE 10.4 mph - N/A   Clear
8:35 PM 46.0 °F 41.0 °F 34.3 °F 64% 30.10 in 10.0 mi South 10.4 mph - N/A   Clear
8:55 PM 45.9 °F 40.4 °F 34.2 °F 64% 30.10 in 10.0 mi South 11.5 mph - N/A   Clear
9:15 PM 44.2 °F 38.8 °F 34.0 °F 67% 30.10 in 10.0 mi SSE 10.4 mph - N/A   Clear
9:35 PM 43.3 °F 38.1 °F 33.8 °F 69% 30.10 in 10.0 mi SSE 9.2 mph - N/A   Clear
9:55 PM 43.0 °F 38.8 °F 33.6 °F 70% 30.10 in 10.0 mi South 6.9 mph - N/A   Clear
10:15 PM 43.2 °F 37.4 °F 33.6 °F 69% 30.09 in 10.0 mi South 10.4 mph - N/A   Clear
10:35 PM 42.3 °F 36.8 °F 33.3 °F 70% 30.09 in 10.0 mi South 9.2 mph - N/A   Clear
10:55 PM 43.0 °F 38.2 °F 33.3 °F 69% 30.08 in 10.0 mi South 8.1 mph - N/A   Clear
11:15 PM 42.6 °F 37.8 °F 32.9 °F 68% 30.09 in 10.0 mi South 8.1 mph - N/A   Clear
11:35 PM 41.7 °F 36.1 °F 32.9 °F 71% 30.09 in 10.0 mi South 9.2 mph - N/A   Clear
11:55 PM 41.0 °F 36.4 °F 32.4 °F 71% 30.09 in 10.0 mi South 6.9 mph - N/A   Clear